createdAt,value
2019-04-22T00:00:43.279Z,8.20
2019-04-22T00:03:16.164Z,8.67
2019-04-22T00:06:10.129Z,8.73
2019-04-22T00:08:46.381Z,7.80
2019-04-22T00:11:23.955Z,7.87
2019-04-22T00:13:46.903Z,8.30
2019-04-22T00:16:22.223Z,7.97
2019-04-22T00:19:13.135Z,7.73
2019-04-22T00:21:25.817Z,7.33
2019-04-22T00:23:54.745Z,7.67
2019-04-22T00:26:26.075Z,7.47
2019-04-22T00:29:06.318Z,7.00
2019-04-22T00:31:29.891Z,8.23
2019-04-22T00:33:57.655Z,7.33
2019-04-22T00:36:27.554Z,7.57
2019-04-22T00:39:07.485Z,7.93
2019-04-22T00:41:40.915Z,8.30
2019-04-22T00:44:12.666Z,7.33
2019-04-22T00:46:44.447Z,7.80
2019-04-22T00:49:53.022Z,7.90
2019-04-22T00:51:55.577Z,6.93
2019-04-22T00:54:18.044Z,8.27
2019-04-22T00:56:42.242Z,7.27
2019-04-22T00:59:20.105Z,7.20
2019-04-22T01:01:45.315Z,7.23
2019-04-22T01:04:20.408Z,7.93
2019-04-22T01:06:51.540Z,7.40
2019-04-22T01:09:16.871Z,7.33
2019-04-22T01:11:55.611Z,7.57
2019-04-22T01:14:21.706Z,6.97
2019-04-22T01:16:57.875Z,7.03
2019-04-22T01:19:34.787Z,7.60
2019-04-22T01:21:58.405Z,7.03
2019-04-22T01:24:26.471Z,8.20
2019-04-22T01:26:53.780Z,7.43
2019-04-22T01:29:22.827Z,7.17
2019-04-22T01:31:43.896Z,6.83
2019-04-22T01:34:28.864Z,7.37
2019-04-22T01:37:03.414Z,8.07
2019-04-22T01:39:43.715Z,7.17
2019-04-22T01:42:30.535Z,7.17
2019-04-22T01:44:39.002Z,7.20
2019-04-22T01:47:23.214Z,7.77
2019-04-22T01:49:45.868Z,8.00
2019-04-22T01:52:17.079Z,7.57
2019-04-22T01:54:52.148Z,7.70
2019-04-22T01:57:17.206Z,7.70
2019-04-22T01:59:43.105Z,7.47
2019-04-22T02:02:25.541Z,8.00
2019-04-22T02:04:53.316Z,7.33
2019-04-22T02:07:23.556Z,7.40
2019-04-22T02:10:12.244Z,6.50
2019-04-22T02:12:25.857Z,7.60
2019-04-22T02:14:57.256Z,7.30
2019-04-22T02:17:31.548Z,7.57
2019-04-22T02:20:05.097Z,7.23
2019-04-22T02:22:50.817Z,7.03
2019-04-22T02:25:09.037Z,6.90
2019-04-22T02:27:39.021Z,7.23
2019-04-22T02:30:06.070Z,7.63
2019-04-22T02:35:36.461Z,6.50
2019-04-22T02:37:35.788Z,6.93
2019-04-22T02:40:27.727Z,6.60
2019-04-22T02:42:43.526Z,8.10
2019-04-22T02:45:18.460Z,7.40
2019-04-22T02:47:54.541Z,7.43
2019-04-22T02:52:50.153Z,7.43
2019-04-22T02:55:15.424Z,7.33
2019-04-22T02:57:47.431Z,7.07
2019-04-22T03:03:18.379Z,6.93
2019-04-22T03:05:37.091Z,6.60
2019-04-22T03:08:10.285Z,6.70
2019-04-22T03:13:09.304Z,6.87
2019-04-22T03:20:42.711Z,5.70
2019-04-22T03:26:00.492Z,6.77
2019-04-22T03:28:22.648Z,5.80
2019-04-22T03:33:37.011Z,7.00
2019-04-22T03:36:23.706Z,6.20
2019-04-22T03:38:29.027Z,5.83
2019-04-22T03:43:35.712Z,6.20
2019-04-22T03:45:46.292Z,6.20
2019-04-22T03:48:33.550Z,6.07
2019-04-22T03:51:11.872Z,6.17
2019-04-22T03:53:56.425Z,5.80
2019-04-22T03:56:04.008Z,5.33
2019-04-22T03:58:44.606Z,5.27
2019-04-22T04:01:06.384Z,5.93
2019-04-22T04:03:41.668Z,6.20
2019-04-22T04:06:05.382Z,5.40
2019-04-22T04:11:06.739Z,5.40
2019-04-22T04:13:53.087Z,5.87
2019-04-22T04:16:10.311Z,5.40
2019-04-22T04:21:26.698Z,6.03
2019-04-22T04:26:26.766Z,5.77
2019-04-22T04:31:37.980Z,6.30
2019-04-22T04:34:06.324Z,5.63
2019-04-22T04:36:34.874Z,5.07
2019-04-22T04:39:07.378Z,5.77
2019-04-22T04:41:57.038Z,5.83
2019-04-22T04:44:12.777Z,5.60
2019-04-22T04:49:19.127Z,5.60
2019-04-22T04:54:24.212Z,5.10
2019-04-22T04:56:51.355Z,5.27
2019-04-22T04:59:28.165Z,5.60
2019-04-22T05:01:55.716Z,5.00
2019-04-22T05:04:31.269Z,5.50
2019-04-22T05:07:09.046Z,5.10
2019-04-22T05:16:54.574Z,4.97
2019-04-22T05:19:25.670Z,5.37
2019-04-22T05:26:59.601Z,5.50
2019-04-22T05:29:27.779Z,4.90
2019-04-22T05:31:57.266Z,4.93
2019-04-22T05:34:36.588Z,5.80
2019-04-22T05:37:05.296Z,4.63
2019-04-22T05:39:34.028Z,5.05
2019-04-22T05:42:07.608Z,4.72
2019-04-22T05:44:34.423Z,5.78
2019-04-22T05:47:01.098Z,5.15
2019-04-22T05:49:52.501Z,4.75
2019-04-22T05:52:12.276Z,4.60
2019-04-22T05:54:42.792Z,4.40
2019-04-22T05:57:14.301Z,4.60
2019-04-22T05:59:45.954Z,4.20
2019-04-22T06:02:23.520Z,4.70
2019-04-22T06:04:55.071Z,4.17
2019-04-22T06:07:13.460Z,4.00
2019-04-22T06:09:55.359Z,4.17
2019-04-22T06:12:18.866Z,3.92
2019-04-22T06:14:54.284Z,4.40
2019-04-22T06:17:32.074Z,5.08
2019-04-22T06:20:00.617Z,5.00
2019-04-22T06:22:34.310Z,4.35
2019-04-22T06:25:00.857Z,5.10
2019-04-22T06:27:34.072Z,5.10
2019-04-22T06:30:08.036Z,5.35
2019-04-22T06:32:32.545Z,5.50
2019-04-22T06:35:19.892Z,5.30
2019-04-22T06:37:43.355Z,5.55
2019-04-22T06:40:14.538Z,5.28
2019-04-22T06:42:42.754Z,5.28
2019-04-22T06:45:16.741Z,6.22
2019-04-22T06:50:16.916Z,5.25
2019-04-22T06:52:48.308Z,5.78
2019-04-22T06:55:22.904Z,5.20
2019-04-22T06:57:45.017Z,4.90
2019-04-22T07:00:22.488Z,5.20
2019-04-22T07:03:10.193Z,6.20
2019-04-22T07:05:21.756Z,5.28
2019-04-22T07:08:02.733Z,5.22
2019-04-22T07:12:53.888Z,4.25
2019-04-22T07:15:42.403Z,4.85
2019-04-22T07:18:04.278Z,4.75
2019-04-22T07:20:31.585Z,4.10
2019-04-22T07:23:04.336Z,4.30
2019-04-22T07:25:34.795Z,4.10
2019-04-22T07:28:05.203Z,5.22
2019-04-22T07:30:31.334Z,3.60
2019-04-22T07:35:51.262Z,3.62
2019-04-22T07:38:10.808Z,3.65
2019-04-22T07:40:45.772Z,3.45
2019-04-22T07:43:19.581Z,3.05
2019-04-22T07:45:44.037Z,4.03
2019-04-22T07:48:43.014Z,3.22
2019-04-22T07:51:07.763Z,3.20
2019-04-22T07:53:33.438Z,3.22
2019-04-22T07:56:05.306Z,2.87
2019-04-22T07:58:36.129Z,2.77
2019-04-22T08:01:19.126Z,3.12
2019-04-22T08:03:51.592Z,3.20
2019-04-22T08:08:45.986Z,3.50
2019-04-22T08:11:29.877Z,3.15
2019-04-22T08:14:03.530Z,3.50
2019-04-22T08:16:16.528Z,3.92
2019-04-22T08:18:52.240Z,3.72
2019-04-22T08:21:19.747Z,3.40
2019-04-22T08:23:57.503Z,3.75
2019-04-22T08:26:19.533Z,3.83
2019-04-22T08:29:02.341Z,3.70
2019-04-22T08:31:28.649Z,3.33
2019-04-22T08:34:00.335Z,3.83
2019-04-22T08:36:56.972Z,4.05
2019-04-22T08:39:03.833Z,3.90
2019-04-22T08:44:02.563Z,3.70
2019-04-22T08:49:18.905Z,3.65
2019-04-22T08:51:36.232Z,4.05
2019-04-22T08:56:37.194Z,3.77
2019-04-22T09:01:39.243Z,3.75
2019-04-22T09:04:23.230Z,3.92
2019-04-22T09:07:01.367Z,3.55
2019-04-22T09:09:20.821Z,3.50
2019-04-22T09:14:24.227Z,3.40
2019-04-22T09:16:52.693Z,3.30
2019-04-22T09:19:24.101Z,3.70
2019-04-22T09:24:34.324Z,3.58
2019-04-22T09:27:19.193Z,3.45
2019-04-22T09:29:38.207Z,3.98
2019-04-22T09:32:09.423Z,3.85
2019-04-22T09:34:33.910Z,3.55
2019-04-22T09:37:11.925Z,3.15
2019-04-22T09:39:34.299Z,3.60
2019-04-22T09:42:06.947Z,3.35
2019-04-22T09:44:41.960Z,3.40
2019-04-22T09:47:07.914Z,3.40
2019-04-22T09:52:13.323Z,3.45
2019-04-22T09:54:53.181Z,3.40
2019-04-22T09:57:08.922Z,3.98
2019-04-22T09:59:52.528Z,3.15
2019-04-22T10:02:25.005Z,3.37
2019-04-22T10:07:20.946Z,3.83
2019-04-22T10:09:59.767Z,3.80
2019-04-22T10:12:29.984Z,3.58
2019-04-22T10:14:55.893Z,4.15
2019-04-22T10:17:25.585Z,4.03
2019-04-22T10:19:57.891Z,3.85
2019-04-22T10:22:32.367Z,3.97
2019-04-22T10:24:57.874Z,3.83
2019-04-22T10:27:26.198Z,4.10
2019-04-22T10:30:00.359Z,4.20
2019-04-22T10:32:30.822Z,4.15
2019-04-22T10:34:48.563Z,3.67
2019-04-22T10:37:16.984Z,3.90
2019-04-22T10:39:55.122Z,3.77
2019-04-22T10:42:18.136Z,3.65
2019-04-22T10:44:48.533Z,3.52
2019-04-22T10:47:20.012Z,3.60
2019-04-22T10:49:49.563Z,3.92
2019-04-22T10:52:19.068Z,3.00
2019-04-22T10:54:49.458Z,3.22
2019-04-22T10:57:20.114Z,3.62
2019-04-22T10:59:50.408Z,3.23
2019-04-22T11:02:21.394Z,3.65
2019-04-22T11:04:52.273Z,3.20
2019-04-22T11:07:30.833Z,3.77
2019-04-22T11:10:01.108Z,3.25
2019-04-22T11:12:28.249Z,3.30
2019-04-22T11:14:55.915Z,3.33
2019-04-22T11:17:26.007Z,3.20
2019-04-22T11:19:55.618Z,2.77
2019-04-22T11:22:30.023Z,3.15
2019-04-22T11:25:05.624Z,3.35
2019-04-22T11:27:37.004Z,3.45
2019-04-22T11:30:28.250Z,3.12
2019-04-22T11:32:58.401Z,3.33
2019-04-22T11:35:28.142Z,3.27
2019-04-22T11:37:59.393Z,3.62
2019-04-22T11:40:34.887Z,3.02
2019-04-22T11:43:01.772Z,2.92
2019-04-22T11:45:31.452Z,3.08
2019-04-22T11:48:01.489Z,3.10
2019-04-22T11:50:31.624Z,3.10
2019-04-22T11:53:02.625Z,3.45
2019-04-22T11:55:32.890Z,3.47
2019-04-22T11:58:03.922Z,3.40
2019-04-22T12:00:35.132Z,3.55
2019-04-22T12:03:05.199Z,3.47
2019-04-22T12:05:35.148Z,3.05
2019-04-22T12:08:07.153Z,3.00
2019-04-22T12:10:44.039Z,3.35
2019-04-22T12:13:08.351Z,2.90
2019-04-22T12:15:38.012Z,3.00
2019-04-22T12:18:09.285Z,3.20
2019-04-22T12:20:39.248Z,3.42
2019-04-22T12:23:09.485Z,3.30
2019-04-22T12:25:48.699Z,3.77
2019-04-22T12:28:11.235Z,3.35
2019-04-22T12:30:41.714Z,3.62
2019-04-22T12:33:14.540Z,3.80
2019-04-22T12:35:42.435Z,4.08
2019-04-22T12:38:13.158Z,4.25
2019-04-22T12:40:51.208Z,4.03
2019-04-22T12:43:16.126Z,3.60
2019-04-22T12:45:45.263Z,3.50
2019-04-22T12:48:15.097Z,3.70
2019-04-22T12:50:47.768Z,3.67
2019-04-22T12:53:21.613Z,4.05
2019-04-22T12:55:48.167Z,3.98
2019-04-22T12:58:18.097Z,3.72
2019-04-22T13:00:48.430Z,3.90
2019-04-22T13:03:18.273Z,3.22
2019-04-22T13:05:49.325Z,3.20
2019-04-22T13:08:19.983Z,3.43
2019-04-22T13:10:58.703Z,3.62
2019-04-22T13:13:22.914Z,3.80
2019-04-22T13:15:53.090Z,3.08
2019-04-22T13:18:31.897Z,3.50
2019-04-22T13:20:54.933Z,3.85
2019-04-22T13:23:25.538Z,11.28
2019-04-22T13:25:56.764Z,11.38
2019-04-22T13:28:27.227Z,3.62
2019-04-22T13:30:59.764Z,4.97
2019-04-22T13:33:28.717Z,4.55
2019-04-22T13:35:59.306Z,3.40
2019-04-22T13:38:29.153Z,2.83
2019-04-22T13:41:12.479Z,3.00
2019-04-22T13:43:31.123Z,2.92
2019-04-22T13:46:01.818Z,2.92
2019-04-22T13:48:52.752Z,2.62
2019-04-22T13:51:33.810Z,3.12
2019-04-22T13:54:45.036Z,4.15
2019-04-22T13:56:28.398Z,3.00
2019-04-22T13:58:50.673Z,3.60
2019-04-22T14:01:18.738Z,3.10
2019-04-22T14:04:00.695Z,3.50
2019-04-22T14:06:31.261Z,3.47
2019-04-22T14:09:01.157Z,4.40
2019-04-22T14:11:48.847Z,3.77
2019-04-22T14:14:07.003Z,3.15
2019-04-22T14:16:37.136Z,2.85
2019-04-22T14:19:07.824Z,3.10
2019-04-22T14:21:38.865Z,3.17
2019-04-22T14:24:10.644Z,3.12
2019-04-22T14:26:53.973Z,4.22
2019-04-22T14:29:11.461Z,2.90
2019-04-22T14:31:42.402Z,3.92
2019-04-22T14:34:13.351Z,3.10
2019-04-22T14:36:43.521Z,2.40
2019-04-22T14:39:13.127Z,2.65
2019-04-22T14:41:57.683Z,3.00
2019-04-22T14:49:37.031Z,2.60
2019-04-22T14:52:13.619Z,2.50
2019-04-22T14:54:31.333Z,2.57
2019-04-22T14:56:49.318Z,2.55
2019-04-22T14:59:18.986Z,2.50
2019-04-22T15:01:49.658Z,2.27
2019-04-22T15:04:19.434Z,2.55
2019-04-22T15:06:50.296Z,2.20
2019-04-22T15:09:20.003Z,2.90
2019-04-22T15:11:58.205Z,2.10
2019-04-22T15:14:21.518Z,2.90
2019-04-22T15:16:55.270Z,2.87
2019-04-22T15:19:27.589Z,2.50
2019-04-22T15:21:57.123Z,2.85
2019-04-22T15:24:27.537Z,2.33
2019-04-22T15:26:58.769Z,3.50
2019-04-22T15:29:29.615Z,3.52
2019-04-22T15:31:59.900Z,3.87
2019-04-22T15:34:31.159Z,2.75
2019-04-22T15:37:02.395Z,2.55
2019-04-22T15:39:32.005Z,2.70
2019-04-22T15:42:11.514Z,2.50
2019-04-22T15:44:33.818Z,2.77
2019-04-22T15:47:04.870Z,2.40
2019-04-22T15:49:38.150Z,2.80
2019-04-22T15:52:08.108Z,2.58
2019-04-22T15:54:37.806Z,2.70
2019-04-22T15:57:08.745Z,2.70
2019-04-22T15:59:53.749Z,2.60
2019-04-22T16:02:10.130Z,2.40
2019-04-22T16:04:41.171Z,3.02
2019-04-22T16:07:10.945Z,2.83
2019-04-22T16:09:41.634Z,2.30
2019-04-22T16:12:19.339Z,2.87
2019-04-22T16:14:47.852Z,2.70
2019-04-22T16:17:14.729Z,2.40
2019-04-22T16:19:46.722Z,2.37
2019-04-22T16:22:19.672Z,2.20
2019-04-22T16:24:50.246Z,2.35
2019-04-22T16:27:22.834Z,2.52
2019-04-22T16:29:52.585Z,3.35
2019-04-22T16:32:23.340Z,2.30
2019-04-22T16:34:54.662Z,2.08
2019-04-22T16:37:25.038Z,2.17
2019-04-22T16:39:54.800Z,2.00
2019-04-22T16:42:33.754Z,2.40
2019-04-22T16:44:55.636Z,2.47
2019-04-22T16:47:25.739Z,2.27
2019-04-22T16:49:55.497Z,2.47
2019-04-22T16:52:25.946Z,2.27
2019-04-22T16:54:56.812Z,2.10
2019-04-22T16:57:26.347Z,1.92
2019-04-22T16:59:58.393Z,2.10
2019-04-22T17:02:47.045Z,1.98
2019-04-22T17:05:21.584Z,2.02
2019-04-22T17:07:52.227Z,2.22
2019-04-22T17:10:23.702Z,2.42
2019-04-22T17:13:01.494Z,2.22
2019-04-22T17:15:27.061Z,2.10
2019-04-22T17:17:57.133Z,2.10
2019-04-22T17:20:29.240Z,2.40
2019-04-22T17:23:02.038Z,1.92
2019-04-22T17:25:32.140Z,1.98
2019-04-22T17:28:03.655Z,1.87
2019-04-22T17:30:33.375Z,1.98
2019-04-22T17:33:03.198Z,2.02
2019-04-22T17:35:34.049Z,2.25
2019-04-22T17:38:12.766Z,2.30
2019-04-22T17:40:52.221Z,2.40
2019-04-22T17:43:38.672Z,2.72
2019-04-22T17:46:12.053Z,2.50
2019-04-22T17:48:58.853Z,3.08
2019-04-22T17:51:39.628Z,3.25
2019-04-22T17:54:19.194Z,3.50
2019-04-22T17:56:37.595Z,3.05
2019-04-22T17:59:13.921Z,3.02
2019-04-22T18:01:39.737Z,3.60
2019-04-22T18:03:55.504Z,2.98
2019-04-22T18:06:52.737Z,3.33
2019-04-22T18:09:12.414Z,3.52
2019-04-22T18:11:54.274Z,3.42
2019-04-22T18:14:34.676Z,3.08
2019-04-22T18:16:52.111Z,2.60
2019-04-22T18:19:19.340Z,2.35
2019-04-22T18:21:51.657Z,3.50
2019-04-22T18:24:18.272Z,4.33
2019-04-22T18:27:03.259Z,3.67
2019-04-22T18:29:33.006Z,2.90
2019-04-22T18:31:54.473Z,2.87
2019-04-22T18:34:26.622Z,2.77
2019-04-22T18:37:00.712Z,3.05
2019-04-22T18:39:40.545Z,2.98
2019-04-22T18:42:04.809Z,3.30
2019-04-22T18:44:39.910Z,3.65
2019-04-22T18:47:09.861Z,3.25
2019-04-22T18:49:42.921Z,2.90
2019-04-22T18:52:33.766Z,3.12
2019-04-22T18:55:07.175Z,3.00
2019-04-22T18:57:44.097Z,3.05
2019-04-22T19:00:12.217Z,2.67
2019-04-22T19:02:50.768Z,2.90
2019-04-22T19:05:28.179Z,2.90
2019-04-22T19:08:13.704Z,4.12
2019-04-22T19:10:53.183Z,3.30
2019-04-22T19:13:48.975Z,3.80
2019-04-22T19:15:53.856Z,3.58
2019-04-22T19:18:31.547Z,3.77
2019-04-22T19:21:02.442Z,3.00
2019-04-22T19:23:45.193Z,2.65
2019-04-22T19:26:02.545Z,2.80
2019-04-22T19:28:37.520Z,2.80
2019-04-22T19:31:10.694Z,3.02
2019-04-22T19:33:49.257Z,2.50
2019-04-22T19:36:14.649Z,3.33
2019-04-22T19:38:51.148Z,3.02
2019-04-22T19:41:24.179Z,2.65
2019-04-22T19:43:58.639Z,2.60
2019-04-22T19:46:28.190Z,2.80
2019-04-22T19:49:11.950Z,3.62
2019-04-22T19:51:47.633Z,3.80
2019-04-22T19:54:12.879Z,4.47
2019-04-22T19:56:31.273Z,4.53
2019-04-22T19:59:02.100Z,4.00
2019-04-22T20:01:41.601Z,4.67
2019-04-22T20:04:41.337Z,4.78
2019-04-22T20:06:53.529Z,5.13
2019-04-22T20:09:48.125Z,5.07
2019-04-22T20:12:00.660Z,5.70
2019-04-22T20:14:34.911Z,5.53
2019-04-22T20:17:02.645Z,5.33
2019-04-22T20:19:45.355Z,5.35
2019-04-22T20:22:09.088Z,5.17
2019-04-22T20:24:28.139Z,5.65
2019-04-22T20:27:21.359Z,5.65
2019-04-22T20:29:55.124Z,5.20
2019-04-22T20:32:22.110Z,5.25
2019-04-22T20:34:57.430Z,4.83
2019-04-22T20:40:00.576Z,4.30
2019-04-22T20:42:48.402Z,2.90
2019-04-22T20:45:04.201Z,2.77
2019-04-22T20:47:26.546Z,2.70
2019-04-22T20:50:07.984Z,2.47
2019-04-22T20:52:38.762Z,2.87
2019-04-22T20:55:04.337Z,2.87
2019-04-22T20:57:40.393Z,3.17
2019-04-22T21:00:07.891Z,2.65
2019-04-22T21:02:32.435Z,2.75
2019-04-22T21:04:59.073Z,3.00
2019-04-22T21:07:37.570Z,3.05
2019-04-22T21:10:08.988Z,2.87
2019-04-22T21:12:36.625Z,3.10
2019-04-22T21:15:20.473Z,2.67
2019-04-22T21:17:45.967Z,3.02
2019-04-22T21:20:28.709Z,3.00
2019-04-22T21:22:48.225Z,2.85
2019-04-22T21:25:16.610Z,3.00
2019-04-22T21:28:03.077Z,3.27
2019-04-22T21:30:29.221Z,3.33
2019-04-22T21:32:57.758Z,3.27
2019-04-22T21:35:47.234Z,3.08
2019-04-22T21:38:11.411Z,3.10
2019-04-22T21:40:34.056Z,2.90
2019-04-22T21:43:12.304Z,2.65
2019-04-22T21:45:31.039Z,3.33
2019-04-22T21:48:20.299Z,3.17
2019-04-22T21:50:48.198Z,3.52
2019-04-22T21:53:25.180Z,3.22
2019-04-22T21:55:52.645Z,3.62
2019-04-22T21:58:18.095Z,3.77
2019-04-22T22:00:57.838Z,4.00
2019-04-22T22:03:30.019Z,3.27
2019-04-22T22:05:47.253Z,3.70
2019-04-22T22:08:32.084Z,4.20
2019-04-22T22:11:02.518Z,4.10
2019-04-22T22:13:34.775Z,3.90
2019-04-22T22:16:04.642Z,3.93
2019-04-22T22:18:32.894Z,3.92
2019-04-22T22:21:31.367Z,4.10
2019-04-22T22:23:38.952Z,4.27
2019-04-22T22:26:05.705Z,4.20
2019-04-22T22:28:53.463Z,4.07
2019-04-22T22:31:15.512Z,4.37
2019-04-22T22:33:43.431Z,4.17
2019-04-22T22:36:13.296Z,4.40
2019-04-22T22:38:41.598Z,4.17
2019-04-22T22:40:56.060Z,4.47
2019-04-22T22:43:34.577Z,4.50
2019-04-22T22:46:13.542Z,4.67
2019-04-22T22:48:51.415Z,4.15
2019-04-22T22:51:32.564Z,3.70
2019-04-22T22:53:51.240Z,3.90
2019-04-22T22:56:28.888Z,4.20
2019-04-22T22:58:55.662Z,4.03
2019-04-22T23:01:23.428Z,4.60
2019-04-22T23:03:55.907Z,4.30
2019-04-22T23:06:32.755Z,3.90
2019-04-22T23:09:02.635Z,4.20
2019-04-22T23:11:45.493Z,3.90
2019-04-22T23:14:03.921Z,3.50
2019-04-22T23:16:22.087Z,4.53
2019-04-22T23:18:59.860Z,4.23
2019-04-22T23:21:39.621Z,4.47
2019-04-22T23:24:28.158Z,3.70
2019-04-22T23:27:16.059Z,4.72
2019-04-22T23:29:41.186Z,4.03
2019-04-22T23:32:14.292Z,4.60
2019-04-22T23:34:49.376Z,4.78
2019-04-22T23:37:21.700Z,4.90
2019-04-22T23:39:59.035Z,4.50
2019-04-22T23:42:27.063Z,4.53
2019-04-22T23:45:07.395Z,4.90
2019-04-22T23:47:27.601Z,5.03
2019-04-22T23:50:01.051Z,4.47
2019-04-22T23:52:48.199Z,4.53
2019-04-22T23:55:14.736Z,4.63
2019-04-22T23:57:46.985Z,4.93
